Time;durP1;ratioP1;P1;durP2;ratioP2;P2;SDS_P1;SDS_P2;PMS_P1;PMS_P2;Temp;Humidity;BMP_temperature;BMP_pressure;BME280_temperature;BME280_humidity;BME280_pressure;Samples;Min_cycle;Max_cycle;Signal;HPM_P1;HPM_P2
2022/12/09 00:00:14;;;;;;;;;;;19.30;40.90;;;;;;5112299;28;20047;-73
2022/12/09 00:02:40;;;;;;;;;;;19.30;40.90;;;;;;5099739;28;19924;-72
2022/12/09 00:05:07;;;;;;;;;;;19.30;40.90;;;;;;5107559;27;20381;-72
2022/12/09 00:07:36;;;;;;;;;;;19.20;40.80;;;;;;5101844;28;19949;-73
2022/12/09 00:10:03;;;;;;;;;;;19.20;40.80;;;;;;5128043;27;19966;-73
2022/12/09 00:12:29;;;;;;;;;;;19.20;40.80;;;;;;5121191;27;19952;-73
2022/12/09 00:14:56;;;;;;;;;;;19.20;40.80;;;;;;5099948;28;19924;-73
2022/12/09 00:17:23;;;;;;;;;;;19.20;40.80;;;;;;5098322;28;20442;-73
2022/12/09 00:19:50;;;;;;;;;;;19.20;40.80;;;;;;5099592;27;19919;-73
2022/12/09 00:22:16;;;;;;;;;;;19.20;40.80;;;;;;5104014;28;20331;-73
2022/12/09 00:24:45;;;;;;;;;;;19.20;40.70;;;;;;5095359;28;19919;-72
2022/12/09 00:27:11;;;;;;;;;;;19.20;40.70;;;;;;5119873;27;19919;-72
2022/12/09 00:29:38;;;;;;;;;;;19.20;40.70;;;;;;5105400;28;19920;-72
2022/12/09 00:32:05;;;;;;;;;;;19.20;40.70;;;;;;5097446;28;19927;-73
2022/12/09 00:34:32;;;;;;;;;;;19.20;40.70;;;;;;5117365;28;19919;-72
2022/12/09 00:36:58;;;;;;;;;;;19.20;40.70;;;;;;5115667;28;19966;-73
2022/12/09 00:39:25;;;;;;;;;;;19.20;40.70;;;;;;5099990;28;20317;-72
2022/12/09 00:41:53;;;;;;;;;;;19.20;40.70;;;;;;5108132;27;19924;-72
2022/12/09 00:44:20;;;;;;;;;;;19.20;40.60;;;;;;5112689;28;19972;-73
2022/12/09 00:46:47;;;;;;;;;;;19.20;40.70;;;;;;5119204;27;19923;-73
2022/12/09 00:49:13;;;;;;;;;;;19.20;40.60;;;;;;5099870;27;19919;-73
2022/12/09 00:51:40;;;;;;;;;;;19.20;40.60;;;;;;5137573;27;19972;-73
2022/12/09 00:54:07;;;;;;;;;;;19.10;40.60;;;;;;5117674;27;19923;-73
2022/12/09 00:56:34;;;;;;;;;;;19.10;40.60;;;;;;5119023;27;19926;-73
2022/12/09 00:59:02;;;;;;;;;;;19.10;40.50;;;;;;5126612;27;19926;-72
2022/12/09 01:01:29;;;;;;;;;;;19.10;40.50;;;;;;5098397;28;20369;-72
2022/12/09 01:03:55;;;;;;;;;;;19.10;40.50;;;;;;5109493;27;19926;-72
2022/12/09 01:06:23;;;;;;;;;;;19.10;40.50;;;;;;5119224;27;19941;-72
2022/12/09 01:08:49;;;;;;;;;;;19.10;40.50;;;;;;5097981;28;19920;-72
2022/12/09 01:11:17;;;;;;;;;;;19.10;40.50;;;;;;5105129;27;19980;-72
2022/12/09 01:13:44;;;;;;;;;;;19.10;40.50;;;;;;5120193;27;19920;-73
2022/12/09 01:16:16;;;;;;;;;;;19.10;40.50;;;;;;5108125;28;19919;-72
2022/12/09 01:18:42;;;;;;;;;;;19.10;40.50;;;;;;5116172;28;19919;-72
2022/12/09 01:21:09;;;;;;;;;;;19.10;40.50;;;;;;5114790;27;19919;-72
2022/12/09 01:23:36;;;;;;;;;;;19.10;40.50;;;;;;5119317;27;19919;-73
2022/12/09 01:26:03;;;;;;;;;;;19.10;40.40;;;;;;5112020;27;19919;-72
2022/12/09 01:28:30;;;;;;;;;;;19.10;40.40;;;;;;5119305;27;19968;-72
2022/12/09 01:30:57;;;;;;;;;;;19.10;40.40;;;;;;5115786;27;19919;-72
2022/12/09 01:33:25;;;;;;;;;;;19.10;40.40;;;;;;5118454;27;19927;-72
2022/12/09 01:35:52;;;;;;;;;;;19.10;40.40;;;;;;5115646;27;20371;-72
2022/12/09 01:38:18;;;;;;;;;;;19.10;40.40;;;;;;5114244;27;19920;-73
2022/12/09 01:40:46;;;;;;;;;;;19.10;40.40;;;;;;5098004;28;19924;-73
2022/12/09 01:43:16;;;;;;;;;;;19.10;40.40;;;;;;5094989;28;20218;-72
2022/12/09 01:45:43;;;;;;;;;;;19.10;40.40;;;;;;5106475;27;19920;-71
2022/12/09 01:48:12;;;;;;;;;;;19.10;40.40;;;;;;5117916;27;19919;-72
2022/12/09 01:50:41;;;;;;;;;;;19.10;40.40;;;;;;5102884;28;19920;-73
2022/12/09 01:53:08;;;;;;;;;;;19.10;40.40;;;;;;5095897;28;19930;-73
2022/12/09 01:55:35;;;;;;;;;;;19.10;40.40;;;;;;5097620;28;19920;-72
2022/12/09 01:58:02;;;;;;;;;;;19.10;40.40;;;;;;5094862;28;19975;-72
2022/12/09 02:00:28;;;;;;;;;;;19.10;40.40;;;;;;5096455;28;19984;-70
2022/12/09 02:02:55;;;;;;;;;;;19.10;40.40;;;;;;5113272;27;20277;-72
2022/12/09 02:05:23;;;;;;;;;;;19.10;40.40;;;;;;5116312;27;19926;-72
2022/12/09 02:07:51;;;;;;;;;;;19.10;40.40;;;;;;5114523;27;19932;-72
2022/12/09 02:10:18;;;;;;;;;;;19.10;40.40;;;;;;5118326;27;19971;-71
2022/12/09 02:12:47;;;;;;;;;;;19.10;40.30;;;;;;5129453;27;19926;-73
2022/12/09 02:15:15;;;;;;;;;;;19.10;40.40;;;;;;5103596;27;19993;-72
2022/12/09 02:17:42;;;;;;;;;;;19.10;40.30;;;;;;5135810;27;19923;-72
2022/12/09 02:20:11;;;;;;;;;;;19.10;40.40;;;;;;5121714;27;19972;-71
2022/12/09 02:22:38;;;;;;;;;;;19.10;40.40;;;;;;5099717;27;19924;-73
2022/12/09 02:25:10;;;;;;;;;;;19.00;40.20;;;;;;5117847;27;19919;-72
2022/12/09 02:27:37;;;;;;;;;;;19.10;40.30;;;;;;5099391;28;19920;-72
2022/12/09 02:30:05;;;;;;;;;;;19.10;40.40;;;;;;5115219;28;19966;-72
2022/12/09 02:32:53;;;;;;;;;;;19.00;40.20;;;;;;5109515;27;19919;-73
2022/12/09 02:35:22;;;;;;;;;;;19.10;40.30;;;;;;5097955;27;19920;-73
2022/12/09 02:37:50;;;;;;;;;;;19.00;40.20;;;;;;5135299;27;19981;-72
2022/12/09 02:40:18;;;;;;;;;;;19.00;40.20;;;;;;5097007;28;19920;-72
2022/12/09 02:42:44;;;;;;;;;;;19.00;40.20;;;;;;5096760;28;19945;-73
2022/12/09 02:45:11;;;;;;;;;;;19.00;40.20;;;;;;5096316;28;19919;-72
2022/12/09 02:47:39;;;;;;;;;;;19.00;40.20;;;;;;5100131;27;19923;-72
2022/12/09 02:50:07;;;;;;;;;;;19.00;40.20;;;;;;5117580;27;19919;-72
2022/12/09 02:52:35;;;;;;;;;;;19.00;40.20;;;;;;5098389;28;19977;-72
2022/12/09 02:55:02;;;;;;;;;;;19.00;40.20;;;;;;5094668;28;19920;-72
2022/12/09 02:57:30;;;;;;;;;;;19.00;40.20;;;;;;5099922;27;20249;-72
2022/12/09 02:59:56;;;;;;;;;;;19.00;40.20;;;;;;5128692;27;19920;-72
2022/12/09 03:02:24;;;;;;;;;;;19.00;40.20;;;;;;5116897;28;19919;-72
2022/12/09 03:04:55;;;;;;;;;;;19.00;40.20;;;;;;5111517;28;19923;-73
2022/12/09 03:07:32;;;;;;;;;;;19.00;40.20;;;;;;5095172;28;20290;-72
2022/12/09 03:10:01;;;;;;;;;;;19.00;40.20;;;;;;5096577;28;19924;-72
2022/12/09 03:12:28;;;;;;;;;;;19.00;40.20;;;;;;5106201;28;19924;-72
2022/12/09 03:15:05;;;;;;;;;;;19.00;40.20;;;;;;5117680;28;19920;-71
2022/12/09 03:17:32;;;;;;;;;;;19.00;40.20;;;;;;5095726;28;19920;-72
2022/12/09 03:20:00;;;;;;;;;;;19.00;40.10;;;;;;5096326;28;19920;-72
2022/12/09 03:22:28;;;;;;;;;;;19.00;40.10;;;;;;5114499;28;19973;-72
2022/12/09 03:24:55;;;;;;;;;;;19.00;40.10;;;;;;5101940;28;19969;-73
2022/12/09 03:27:25;;;;;;;;;;;19.00;40.20;;;;;;5112535;28;19965;-72
2022/12/09 03:29:52;;;;;;;;;;;19.00;40.10;;;;;;5095314;28;19920;-72
2022/12/09 03:32:19;;;;;;;;;;;19.00;40.10;;;;;;5105125;27;19968;-73
2022/12/09 03:34:46;;;;;;;;;;;19.00;40.10;;;;;;5100525;27;19923;-73
2022/12/09 03:37:13;;;;;;;;;;;19.00;40.10;;;;;;5097838;28;19927;-72
2022/12/09 03:39:41;;;;;;;;;;;19.00;40.10;;;;;;5116175;28;19920;-71
2022/12/09 03:42:09;;;;;;;;;;;19.00;40.10;;;;;;5121495;27;20017;-72
2022/12/09 03:44:38;;;;;;;;;;;19.00;40.10;;;;;;5108380;28;19920;-72
2022/12/09 03:47:05;;;;;;;;;;;19.00;40.10;;;;;;5110370;27;19926;-71
2022/12/09 03:49:31;;;;;;;;;;;19.00;40.10;;;;;;5128466;27;19919;-73
2022/12/09 03:52:00;;;;;;;;;;;19.00;40.10;;;;;;5106003;27;19923;-71
2022/12/09 03:54:28;;;;;;;;;;;19.00;40.00;;;;;;5104329;27;19979;-72
2022/12/09 03:56:55;;;;;;;;;;;19.00;40.10;;;;;;5121024;27;19919;-73
2022/12/09 03:59:22;;;;;;;;;;;19.00;40.00;;;;;;5116745;27;19926;-73
2022/12/09 04:01:51;;;;;;;;;;;19.00;40.00;;;;;;5125492;27;20022;-73
2022/12/09 04:04:17;;;;;;;;;;;19.00;40.10;;;;;;5100896;28;19920;-73
2022/12/09 04:06:44;;;;;;;;;;;19.00;40.00;;;;;;5125959;27;19973;-71
2022/12/09 04:09:11;;;;;;;;;;;19.00;40.00;;;;;;5099405;28;19984;-72
2022/12/09 04:11:38;;;;;;;;;;;19.00;40.20;;;;;;5113839;27;19920;-72
2022/12/09 04:14:04;;;;;;;;;;;19.00;40.00;;;;;;5116318;27;19919;-71
2022/12/09 04:16:31;;;;;;;;;;;19.00;40.00;;;;;;5097750;28;19924;-73
2022/12/09 04:18:59;;;;;;;;;;;19.00;40.00;;;;;;5099518;28;19935;-73
2022/12/09 04:21:26;;;;;;;;;;;18.90;39.90;;;;;;5095416;28;19931;-72
2022/12/09 04:23:53;;;;;;;;;;;19.00;40.00;;;;;;5115687;27;19924;-72
2022/12/09 04:26:21;;;;;;;;;;;19.00;40.00;;;;;;5114446;27;19968;-72
2022/12/09 04:28:47;;;;;;;;;;;19.00;40.00;;;;;;5119611;27;19920;-73
2022/12/09 04:31:15;;;;;;;;;;;19.00;40.00;;;;;;5117282;27;19942;-72
2022/12/09 04:33:41;;;;;;;;;;;19.00;40.00;;;;;;5110557;28;19946;-72
2022/12/09 04:36:11;;;;;;;;;;;18.90;39.90;;;;;;5104290;27;19924;-71
2022/12/09 04:38:38;;;;;;;;;;;19.00;40.00;;;;;;5116893;27;20015;-72
2022/12/09 04:41:05;;;;;;;;;;;18.90;39.90;;;;;;5097995;28;19927;-71
2022/12/09 04:43:32;;;;;;;;;;;18.90;39.90;;;;;;5117898;28;19919;-72
2022/12/09 04:45:59;;;;;;;;;;;18.90;39.90;;;;;;5110542;27;19927;-72
2022/12/09 04:48:26;;;;;;;;;;;18.90;39.80;;;;;;5109290;28;19931;-72
2022/12/09 04:50:53;;;;;;;;;;;18.90;39.90;;;;;;5100342;27;19920;-72
2022/12/09 04:53:21;;;;;;;;;;;18.90;39.80;;;;;;5107892;27;19924;-71
2022/12/09 04:55:48;;;;;;;;;;;18.90;39.80;;;;;;5108500;27;19927;-71
2022/12/09 04:58:14;;;;;;;;;;;18.90;39.80;;;;;;5124661;27;19933;-70
2022/12/09 05:00:41;;;;;;;;;;;18.90;39.80;;;;;;5116688;27;19971;-73
2022/12/09 05:03:08;;;;;;;;;;;18.90;39.80;;;;;;5114764;27;19919;-72
2022/12/09 05:05:35;;;;;;;;;;;18.90;39.80;;;;;;5110025;27;19920;-73
2022/12/09 05:08:01;;;;;;;;;;;18.90;39.80;;;;;;5123228;27;19919;-72
2022/12/09 05:10:30;;;;;;;;;;;18.90;39.80;;;;;;5119574;27;20314;-73
2022/12/09 05:12:56;;;;;;;;;;;18.90;39.70;;;;;;5130700;27;19919;-72
2022/12/09 05:15:23;;;;;;;;;;;18.90;39.70;;;;;;5118756;27;19926;-72
2022/12/09 05:17:50;;;;;;;;;;;18.90;39.80;;;;;;5104933;28;20359;-72
2022/12/09 05:20:16;;;;;;;;;;;18.90;39.70;;;;;;5115161;27;19927;-72
2022/12/09 05:22:43;;;;;;;;;;;18.90;39.70;;;;;;5102134;28;19919;-70
2022/12/09 05:25:13;;;;;;;;;;;18.90;39.70;;;;;;5107990;28;19969;-72
2022/12/09 05:27:41;;;;;;;;;;;18.90;39.70;;;;;;5114689;27;19979;-71
2022/12/09 05:30:08;;;;;;;;;;;18.90;39.70;;;;;;5118542;27;19920;-72
2022/12/09 05:32:35;;;;;;;;;;;18.90;39.70;;;;;;5116520;27;20269;-72
2022/12/09 05:35:02;;;;;;;;;;;18.90;39.70;;;;;;5116298;27;19920;-72
2022/12/09 05:37:28;;;;;;;;;;;18.90;39.70;;;;;;5095229;27;19920;-72
2022/12/09 05:39:55;;;;;;;;;;;18.90;39.70;;;;;;5111473;28;19920;-72
2022/12/09 05:42:22;;;;;;;;;;;18.90;39.70;;;;;;5097671;27;19926;-72
2022/12/09 05:44:50;;;;;;;;;;;18.90;39.60;;;;;;5099138;28;19927;-71
2022/12/09 05:47:17;;;;;;;;;;;18.90;39.70;;;;;;5096505;27;20014;-72
2022/12/09 05:49:44;;;;;;;;;;;18.90;39.60;;;;;;5118608;27;20242;-72
2022/12/09 05:52:13;;;;;;;;;;;18.90;39.60;;;;;;5114149;27;19930;-72
2022/12/09 05:54:39;;;;;;;;;;;18.90;39.60;;;;;;5118697;27;20299;-73
2022/12/09 05:57:06;;;;;;;;;;;18.90;39.60;;;;;;5103729;28;19920;-72
2022/12/09 05:59:33;;;;;;;;;;;18.90;39.60;;;;;;5095610;28;19919;-71
2022/12/09 06:02:01;;;;;;;;;;;18.90;39.60;;;;;;5111740;27;19919;-72
2022/12/09 06:04:28;;;;;;;;;;;18.90;39.60;;;;;;5110419;27;20353;-72
2022/12/09 06:06:54;;;;;;;;;;;18.90;39.60;;;;;;5115602;28;19924;-72
2022/12/09 06:09:21;;;;;;;;;;;18.90;39.60;;;;;;5106668;27;19923;-73
2022/12/09 06:11:48;;;;;;;;;;;18.90;39.60;;;;;;5135941;27;19923;-73
2022/12/09 06:14:15;;;;;;;;;;;18.90;39.60;;;;;;5113890;27;19926;-72
2022/12/09 06:16:42;;;;;;;;;;;18.90;39.60;;;;;;5102126;28;19927;-72
2022/12/09 06:19:11;;;;;;;;;;;18.90;39.60;;;;;;5104176;27;19919;-72
2022/12/09 06:21:39;;;;;;;;;;;18.90;39.60;;;;;;5117501;27;19927;-73
2022/12/09 06:24:06;;;;;;;;;;;18.90;39.60;;;;;;5094756;28;19919;-73
2022/12/09 06:26:32;;;;;;;;;;;18.90;39.60;;;;;;5097886;28;19919;-74
2022/12/09 06:28:59;;;;;;;;;;;18.90;39.60;;;;;;5105421;27;19919;-72
2022/12/09 06:31:26;;;;;;;;;;;18.90;39.60;;;;;;5117306;27;19923;-72
2022/12/09 06:33:53;;;;;;;;;;;18.90;39.60;;;;;;5115064;27;19972;-74
2022/12/09 06:36:21;;;;;;;;;;;18.90;39.60;;;;;;5106662;28;19919;-73
2022/12/09 06:38:48;;;;;;;;;;;18.90;39.60;;;;;;5096426;28;19976;-73
2022/12/09 06:41:14;;;;;;;;;;;18.90;39.60;;;;;;5095234;28;19927;-72
2022/12/09 06:43:41;;;;;;;;;;;18.90;39.60;;;;;;5093512;28;19923;-72
2022/12/09 06:46:11;;;;;;;;;;;18.90;39.60;;;;;;5096686;28;20362;-73
2022/12/09 06:48:37;;;;;;;;;;;18.90;39.60;;;;;;5094909;28;19919;-73
2022/12/09 06:51:04;;;;;;;;;;;18.90;39.60;;;;;;5110995;27;19969;-72
2022/12/09 06:53:32;;;;;;;;;;;18.90;39.60;;;;;;5105332;28;19919;-72
2022/12/09 06:56:01;;;;;;;;;;;18.90;39.60;;;;;;5115998;27;20009;-73
2022/12/09 06:58:27;;;;;;;;;;;18.90;39.60;;;;;;5135294;27;20365;-72
2022/12/09 07:00:54;;;;;;;;;;;18.90;39.60;;;;;;5102633;28;19931;-73
2022/12/09 07:03:21;;;;;;;;;;;18.90;39.60;;;;;;5095898;28;19920;-73
2022/12/09 07:05:48;;;;;;;;;;;18.90;39.60;;;;;;5116445;27;19927;-72
2022/12/09 07:08:15;;;;;;;;;;;18.90;39.60;;;;;;5113978;27;19919;-72
2022/12/09 07:10:44;;;;;;;;;;;18.90;39.60;;;;;;5113040;28;19931;-72
2022/12/09 07:13:11;;;;;;;;;;;18.90;39.60;;;;;;5096456;28;20014;-73
2022/12/09 07:15:38;;;;;;;;;;;18.90;39.60;;;;;;5111968;28;19919;-73
2022/12/09 07:18:05;;;;;;;;;;;18.90;39.60;;;;;;5127927;28;19927;-72
2022/12/09 07:20:32;;;;;;;;;;;18.90;39.50;;;;;;5123906;28;19923;-72
2022/12/09 07:22:58;;;;;;;;;;;18.90;39.60;;;;;;5112346;28;19942;-73
2022/12/09 07:25:25;;;;;;;;;;;18.90;39.50;;;;;;5104155;28;19920;-72
2022/12/09 07:27:53;;;;;;;;;;;18.90;39.50;;;;;;5094446;28;19923;-72
2022/12/09 07:30:20;;;;;;;;;;;18.90;39.50;;;;;;5093446;28;19919;-71
2022/12/09 07:32:47;;;;;;;;;;;18.90;39.50;;;;;;5096311;28;19977;-72
2022/12/09 07:35:14;;;;;;;;;;;18.80;39.40;;;;;;5107478;28;19919;-73
2022/12/09 07:37:40;;;;;;;;;;;18.90;39.50;;;;;;5117351;28;19968;-72
2022/12/09 07:40:07;;;;;;;;;;;18.80;39.40;;;;;;5125059;28;19927;-72
2022/12/09 07:42:35;;;;;;;;;;;18.90;39.50;;;;;;5114639;28;19927;-72
2022/12/09 07:45:03;;;;;;;;;;;18.90;39.50;;;;;;5094084;28;19923;-72
2022/12/09 07:47:30;;;;;;;;;;;18.90;39.50;;;;;;5101097;28;19944;-70
2022/12/09 07:49:57;;;;;;;;;;;18.90;39.50;;;;;;5097540;28;19920;-71
2022/12/09 07:52:23;;;;;;;;;;;18.80;39.40;;;;;;5096571;28;19923;-72
2022/12/09 07:54:50;;;;;;;;;;;18.80;39.40;;;;;;5107687;28;19919;-72
2022/12/09 07:57:17;;;;;;;;;;;18.80;39.40;;;;;;5129799;28;19927;-65
2022/12/09 07:59:44;;;;;;;;;;;18.90;39.50;;;;;;5103473;28;19965;-65
2022/12/09 08:02:12;;;;;;;;;;;18.80;39.40;;;;;;5106716;28;19920;-64
2022/12/09 08:04:39;;;;;;;;;;;18.80;39.40;;;;;;5108138;28;19940;-65
2022/12/09 08:07:06;;;;;;;;;;;18.80;39.40;;;;;;5113211;28;19919;-66
2022/12/09 08:09:32;;;;;;;;;;;18.80;39.40;;;;;;5117312;28;19983;-63
2022/12/09 08:11:59;;;;;;;;;;;18.80;39.40;;;;;;5116603;28;19920;-64
2022/12/09 08:14:26;;;;;;;;;;;18.90;39.60;;;;;;5116970;28;19927;-64
2022/12/09 08:16:53;;;;;;;;;;;18.90;39.60;;;;;;5116773;28;19972;-65
2022/12/09 08:19:21;;;;;;;;;;;18.90;39.60;;;;;;5117257;27;19920;-65
2022/12/09 08:21:48;;;;;;;;;;;18.90;39.60;;;;;;5119826;27;19920;-64
2022/12/09 08:24:14;;;;;;;;;;;18.90;39.60;;;;;;5120143;27;19942;-65
2022/12/09 08:26:41;;;;;;;;;;;18.90;39.60;;;;;;5119950;27;19919;-64
2022/12/09 08:29:08;;;;;;;;;;;18.90;39.60;;;;;;5138525;27;19972;-64
2022/12/09 08:31:35;;;;;;;;;;;18.90;39.60;;;;;;5120005;27;19926;-65
2022/12/09 08:34:02;;;;;;;;;;;18.90;39.70;;;;;;5120314;27;20356;-65
2022/12/09 08:36:30;;;;;;;;;;;18.90;39.60;;;;;;5117270;27;19927;-65
2022/12/09 08:38:58;;;;;;;;;;;18.90;39.60;;;;;;5119973;27;19927;-65
2022/12/09 08:41:33;;;;;;;;;;;18.90;39.70;;;;;;5138240;27;19941;-64
2022/12/09 08:44:00;;;;;;;;;;;18.90;39.60;;;;;;5119192;27;19968;-65
2022/12/09 08:46:27;;;;;;;;;;;18.90;40.30;;;;;;5119783;27;19920;-64
2022/12/09 08:48:54;;;;;;;;;;;18.90;39.60;;;;;;5120039;27;19926;-65
2022/12/09 08:51:21;;;;;;;;;;;18.90;39.60;;;;;;5119689;27;20301;-64
2022/12/09 08:53:49;;;;;;;;;;;19.00;39.70;;;;;;5119783;27;19940;-64
2022/12/09 08:56:16;;;;;;;;;;;19.00;39.70;;;;;;5120250;27;19919;-65
2022/12/09 08:58:43;;;;;;;;;;;19.00;39.80;;;;;;5119291;27;20349;-63
2022/12/09 09:01:14;;;;;;;;;;;19.00;39.70;;;;;;5120067;27;19926;-64
2022/12/09 09:03:40;;;;;;;;;;;19.00;39.70;;;;;;5137747;27;20039;-64
2022/12/09 09:06:07;;;;;;;;;;;19.00;39.70;;;;;;5119309;27;19923;-65
2022/12/09 09:08:34;;;;;;;;;;;19.00;39.70;;;;;;5137081;27;19919;-65
2022/12/09 09:11:08;;;;;;;;;;;19.00;39.80;;;;;;5119428;27;20418;-64
2022/12/09 09:13:36;;;;;;;;;;;19.00;39.70;;;;;;5118849;27;20038;-66
2022/12/09 09:16:02;;;;;;;;;;;19.00;39.70;;;;;;5119426;27;19919;-63
2022/12/09 09:18:29;;;;;;;;;;;19.00;39.70;;;;;;5118844;27;19919;-64
2022/12/09 09:20:58;;;;;;;;;;;19.00;39.70;;;;;;5137345;27;19927;-64
2022/12/09 09:23:24;;;;;;;;;;;19.00;39.70;;;;;;5137155;27;19920;-64
2022/12/09 09:25:51;;;;;;;;;;;19.00;39.70;;;;;;5118354;27;19919;-67
2022/12/09 09:28:19;;;;;;;;;;;19.00;39.70;;;;;;5118607;27;19942;-64
2022/12/09 09:30:49;;;;;;;;;;;19.00;39.70;;;;;;5136753;27;19919;-64
2022/12/09 09:33:16;;;;;;;;;;;19.00;39.70;;;;;;5119182;27;19919;-64
2022/12/09 09:35:43;;;;;;;;;;;19.00;39.70;;;;;;5119227;27;19992;-63
2022/12/09 09:38:09;;;;;;;;;;;19.00;39.70;;;;;;5119690;27;19926;-65
2022/12/09 09:40:36;;;;;;;;;;;19.10;39.80;;;;;;5118299;27;19920;-65
2022/12/09 09:43:03;;;;;;;;;;;19.00;39.70;;;;;;5118005;27;19923;-65
2022/12/09 09:45:31;;;;;;;;;;;19.10;39.80;;;;;;5118396;27;19924;-65
2022/12/09 09:47:58;;;;;;;;;;;19.10;39.80;;;;;;5107534;28;19921;-66
2022/12/09 09:50:27;;;;;;;;;;;19.10;39.80;;;;;;5098030;28;20265;-65
2022/12/09 09:52:54;;;;;;;;;;;19.10;39.80;;;;;;5115364;28;19923;-65
2022/12/09 09:55:23;;;;;;;;;;;19.10;39.80;;;;;;5098453;28;19945;-64
2022/12/09 09:57:51;;;;;;;;;;;19.10;39.70;;;;;;5097741;28;19923;-65
2022/12/09 10:00:20;;;;;;;;;;;19.10;39.80;;;;;;5114743;28;19924;-63
2022/12/09 10:02:59;;;;;;;;;;;19.10;39.80;;;;;;5097462;28;20307;-63
2022/12/09 10:05:27;;;;;;;;;;;19.10;39.80;;;;;;5116494;28;20375;-63
2022/12/09 10:07:56;;;;;;;;;;;19.10;39.70;;;;;;5115862;28;19973;-64
2022/12/09 10:10:26;;;;;;;;;;;19.10;39.70;;;;;;5097324;28;19931;-65
2022/12/09 10:12:58;;;;;;;;;;;19.10;39.70;;;;;;5129271;27;19970;-65
2022/12/09 10:15:26;;;;;;;;;;;19.10;39.70;;;;;;5118145;27;20026;-66
2022/12/09 10:17:54;;;;;;;;;;;19.10;39.70;;;;;;5117486;27;19923;-64
2022/12/09 10:20:22;;;;;;;;;;;19.10;39.70;;;;;;5117308;27;19919;-66
2022/12/09 10:22:50;;;;;;;;;;;19.10;39.70;;;;;;5117308;27;19919;-66
2022/12/09 10:25:19;;;;;;;;;;;19.10;39.70;;;;;;5117058;27;20323;-66
2022/12/09 10:27:46;;;;;;;;;;;19.10;39.70;;;;;;5117381;27;20315;-66
2022/12/09 10:30:14;;;;;;;;;;;19.10;39.70;;;;;;5097569;28;19924;-64
2022/12/09 10:32:40;;;;;;;;;;;19.10;39.70;;;;;;5110283;27;20422;-66
2022/12/09 10:35:12;;;;;;;;;;;19.10;39.70;;;;;;5116855;27;19919;-66
2022/12/09 10:37:40;;;;;;;;;;;19.10;39.70;;;;;;5118126;27;19924;-64
2022/12/09 10:40:15;;;;;;;;;;;19.10;39.70;;;;;;5117768;27;19920;-66
2022/12/09 10:45:27;;;;;;;;;;;19.10;39.70;;;;;;5117283;27;19919;-64
2022/12/09 10:47:54;;;;;;;;;;;19.10;39.70;;;;;;5135488;27;19923;-64
2022/12/09 10:50:26;;;;;;;;;;;19.10;39.70;;;;;;5114845;27;20284;-63
2022/12/09 10:52:54;;;;;;;;;;;19.10;39.70;;;;;;5116879;27;19964;-63
2022/12/09 10:55:21;;;;;;;;;;;19.10;39.70;;;;;;5118140;27;19931;-65
2022/12/09 10:57:48;;;;;;;;;;;19.20;39.80;;;;;;5117829;27;20234;-65
2022/12/09 11:00:19;;;;;;;;;;;19.10;39.70;;;;;;5135456;27;19937;-65
2022/12/09 11:02:49;;;;;;;;;;;19.20;39.80;;;;;;5106885;28;20364;-64
2022/12/09 11:05:23;;;;;;;;;;;19.20;39.80;;;;;;5115456;28;19919;-65
2022/12/09 11:07:50;;;;;;;;;;;19.20;39.80;;;;;;5096916;28;19931;-64
2022/12/09 11:10:19;;;;;;;;;;;19.20;39.90;;;;;;5096301;28;19972;-65
2022/12/09 11:12:46;;;;;;;;;;;19.20;39.80;;;;;;5096598;28;19919;-65
2022/12/09 11:15:23;;;;;;;;;;;19.20;39.90;;;;;;5096540;28;19965;-65
2022/12/09 11:17:54;;;;;;;;;;;19.20;39.90;;;;;;5096483;28;19919;-67
2022/12/09 11:20:21;;;;;;;;;;;19.20;39.90;;;;;;5114621;28;19920;-68
2022/12/09 11:22:57;;;;;;;;;;;19.20;39.90;;;;;;5096234;28;19923;-64
2022/12/09 11:25:26;;;;;;;;;;;19.20;39.90;;;;;;5096378;28;19919;-66
2022/12/09 11:27:53;;;;;;;;;;;19.20;39.90;;;;;;5096020;28;20011;-64
2022/12/09 11:30:21;;;;;;;;;;;19.20;39.90;;;;;;5096314;28;19919;-64
2022/12/09 11:32:58;;;;;;;;;;;19.20;39.90;;;;;;5080038;28;19934;-65
2022/12/09 11:35:27;;;;;;;;;;;19.20;40.00;;;;;;5096360;28;19923;-66
2022/12/09 11:37:53;;;;;;;;;;;19.20;40.00;;;;;;5095908;28;19927;-65
2022/12/09 11:40:20;;;;;;;;;;;19.20;40.00;;;;;;5096290;28;19942;-65
2022/12/09 11:42:50;;;;;;;;;;;19.20;40.00;;;;;;5096308;28;19920;-65
2022/12/09 11:45:17;;;;;;;;;;;19.20;40.00;;;;;;5096861;28;19969;-65
2022/12/09 11:47:45;;;;;;;;;;;19.20;40.00;;;;;;5114359;28;19919;-64
2022/12/09 11:50:13;;;;;;;;;;;19.20;40.00;;;;;;5095787;28;19962;-65
2022/12/09 11:52:40;;;;;;;;;;;19.20;40.00;;;;;;5096030;28;19927;-66
2022/12/09 11:55:12;;;;;;;;;;;19.20;40.00;;;;;;5100083;28;19920;-65
2022/12/09 11:57:41;;;;;;;;;;;19.20;40.00;;;;;;5100343;28;19920;-67
2022/12/09 12:00:14;;;;;;;;;;;19.30;40.10;;;;;;5100235;28;19927;-64
2022/12/09 12:02:47;;;;;;;;;;;19.30;40.10;;;;;;5099986;28;19919;-64
2022/12/09 12:05:17;;;;;;;;;;;19.30;40.10;;;;;;5118270;28;19975;-66
2022/12/09 12:07:45;;;;;;;;;;;19.20;40.00;;;;;;5100663;28;19965;-66
2022/12/09 12:10:13;;;;;;;;;;;19.30;40.20;;;;;;5099904;28;19924;-65
2022/12/09 12:12:41;;;;;;;;;;;19.30;40.20;;;;;;5099641;28;19965;-64
2022/12/09 12:15:10;;;;;;;;;;;19.30;50.40;;;;;;5099900;28;19923;-65
2022/12/09 12:17:39;;;;;;;;;;;19.20;49.40;;;;;;5118013;28;19967;-64
2022/12/09 12:20:10;;;;;;;;;;;19.20;49.20;;;;;;5117931;28;19920;-64
2022/12/09 12:22:43;;;;;;;;;;;19.30;49.20;;;;;;5100039;28;19920;-65
2022/12/09 12:25:25;;;;;;;;;;;19.40;49.20;;;;;;5117776;28;19959;-66
2022/12/09 12:27:59;;;;;;;;;;;19.30;49.60;;;;;;5083085;28;19920;-64
2022/12/09 12:30:27;;;;;;;;;;;19.30;49.10;;;;;;5099129;28;19931;-64
2022/12/09 12:33:01;;;;;;;;;;;19.30;49.50;;;;;;5099953;28;20011;-64
2022/12/09 12:35:41;;;;;;;;;;;19.30;49.20;;;;;;5099414;28;19920;-65
2022/12/09 12:38:10;;;;;;;;;;;19.30;49.90;;;;;;5117757;28;19920;-66
2022/12/09 12:40:38;;;;;;;;;;;19.40;48.80;;;;;;5100550;28;19985;-66
2022/12/09 12:46:17;;;;;;;;;;;19.30;48.20;;;;;;5025038;28;20375;-66
2022/12/09 12:48:51;;;;;;;;;;;19.40;48.20;;;;;;5099875;28;19919;-65
2022/12/09 12:51:23;;;;;;;;;;;19.40;48.50;;;;;;5099268;28;20003;-66
2022/12/09 12:53:51;;;;;;;;;;;19.30;48.80;;;;;;5098985;28;19969;-66
2022/12/09 12:56:19;;;;;;;;;;;19.30;48.70;;;;;;5117395;28;20005;-66
2022/12/09 12:58:49;;;;;;;;;;;19.40;49.20;;;;;;5102990;27;19926;-66
2022/12/09 13:01:16;;;;;;;;;;;;;;;;;;5119654;27;19999;-66
2022/12/09 13:03:50;;;;;;;;;;;19.30;39.80;;;;;;5119651;27;20341;-66
2022/12/09 13:06:17;;;;;;;;;;;19.40;40.40;;;;;;5119057;27;19926;-67
2022/12/09 13:08:46;;;;;;;;;;;19.40;40.40;;;;;;5119165;27;19941;-65
2022/12/09 13:11:14;;;;;;;;;;;19.40;40.40;;;;;;5137685;27;19945;-67
2022/12/09 13:13:42;;;;;;;;;;;19.40;40.40;;;;;;5119472;27;19919;-65
2022/12/09 13:16:13;;;;;;;;;;;19.40;40.40;;;;;;5119122;27;20384;-65
2022/12/09 13:18:40;;;;;;;;;;;19.40;40.40;;;;;;5137301;27;19923;-65
2022/12/09 13:21:07;;;;;;;;;;;19.30;40.30;;;;;;5108329;28;19920;-66
2022/12/09 13:23:38;;;;;;;;;;;19.40;40.50;;;;;;5116848;28;19920;-66
2022/12/09 13:26:10;;;;;;;;;;;19.40;40.50;;;;;;5099078;28;19924;-66
2022/12/09 13:28:39;;;;;;;;;;;19.40;40.40;;;;;;5099051;28;19934;-65
2022/12/09 13:31:07;;;;;;;;;;;19.40;40.50;;;;;;5098471;28;19977;-66
2022/12/09 13:33:37;;;;;;;;;;;19.40;40.50;;;;;;5098318;28;19977;-67
2022/12/09 13:36:05;;;;;;;;;;;19.40;40.50;;;;;;5098145;28;19920;-65
2022/12/09 13:38:38;;;;;;;;;;;19.40;40.50;;;;;;5098054;28;19920;-65
2022/12/09 13:41:23;;;;;;;;;;;19.40;40.50;;;;;;5097857;28;19926;-65
2022/12/09 13:43:52;;;;;;;;;;;19.40;40.50;;;;;;5097993;28;19920;-66
2022/12/09 13:46:20;;;;;;;;;;;19.40;40.60;;;;;;5097962;28;19973;-66
2022/12/09 13:48:47;;;;;;;;;;;19.40;40.60;;;;;;5097948;28;19961;-67
2022/12/09 13:51:14;;;;;;;;;;;19.40;40.60;;;;;;5097663;28;19969;-66
2022/12/09 13:53:43;;;;;;;;;;;19.40;40.60;;;;;;5098147;28;19919;-67
2022/12/09 13:56:18;;;;;;;;;;;19.40;40.60;;;;;;5097490;28;19920;-67
2022/12/09 13:58:49;;;;;;;;;;;19.40;40.60;;;;;;5097671;28;19920;-67
2022/12/09 14:01:19;;;;;;;;;;;19.40;40.60;;;;;;5098428;28;19939;-68
2022/12/09 14:03:48;;;;;;;;;;;19.40;40.70;;;;;;5098006;28;19982;-68
2022/12/09 14:06:18;;;;;;;;;;;19.40;40.70;;;;;;5098114;28;19920;-66
2022/12/09 14:08:46;;;;;;;;;;;19.40;40.70;;;;;;5098292;28;20309;-65
2022/12/09 14:11:27;;;;;;;;;;;19.50;40.80;;;;;;5097449;28;19965;-67
2022/12/09 14:13:54;;;;;;;;;;;19.50;40.80;;;;;;5080626;28;19969;-66
2022/12/09 14:16:34;;;;;;;;;;;19.40;40.70;;;;;;5096758;28;19927;-64
2022/12/09 14:19:15;;;;;;;;;;;19.50;40.80;;;;;;5097190;28;19973;-65
2022/12/09 14:21:42;;;;;;;;;;;19.50;40.80;;;;;;5096021;28;19934;-65
2022/12/09 14:24:28;;;;;;;;;;;19.50;40.80;;;;;;5096646;28;19981;-65
2022/12/09 14:27:07;;;;;;;;;;;19.50;40.80;;;;;;5097197;28;19973;-65
2022/12/09 14:29:44;;;;;;;;;;;19.50;40.80;;;;;;5097799;28;19927;-65